Time;durP1;ratioP1;P1;durP2;ratioP2;P2;SDS_P1;SDS_P2;PMS_P1;PMS_P2;Temp;Humidity;BMP_temperature;BMP_pressure;BME280_temperature;BME280_humidity;BME280_pressure;Samples;Min_cycle;Max_cycle;Signal;HPM_P1;HPM_P2
2022/09/18 00:01:42;;;;;;;;;0.00;0.00;;;;;;;;5118303;27;45485;-76
2022/09/18 00:04:10;;;;;;;;;0.00;0.00;;;;;;;;5117712;27;45332;-76
2022/09/18 00:06:37;;;;;;;;;0.00;0.00;;;;;;;;5118254;27;45386;-76
2022/09/18 00:09:04;;;;;;;;;0.00;0.00;;;;;;;;5117965;27;45325;-76
2022/09/18 00:11:32;;;;;;;;;1.00;1.00;;;;;;;;5118321;27;45281;-76
2022/09/18 00:13:58;;;;;;;;;1.00;1.00;;;;;;;;5116991;27;46102;-76
2022/09/18 00:16:24;;;;;;;;;0.00;0.00;;;;;;;;5111916;27;45256;-77
2022/09/18 00:18:49;;;;;;;;;0.33;0.33;;;;;;;;5097649;27;45426;-77
2022/09/18 00:21:16;;;;;;;;;1.00;1.00;;;;;;;;5100600;27;45467;-76
2022/09/18 00:23:42;;;;;;;;;0.00;0.00;;;;;;;;5117560;27;47263;-76
2022/09/18 00:26:08;;;;;;;;;0.00;0.00;;;;;;;;5117790;27;45422;-76
2022/09/18 00:28:34;;;;;;;;;0.00;0.00;;;;;;;;5117185;27;45446;-76
2022/09/18 00:31:16;;;;;;;;;1.67;0.33;;;;;;;;5117907;27;45390;-75
2022/09/18 00:33:41;;;;;;;;;1.00;1.00;;;;;;;;5099017;27;47317;-76
2022/09/18 00:36:08;;;;;;;;;0.00;0.00;;;;;;;;5111538;27;45444;-75
2022/09/18 00:38:33;;;;;;;;;0.67;0.67;;;;;;;;5113420;27;45451;-77
2022/09/18 00:41:00;;;;;;;;;2.00;1.00;;;;;;;;5109113;27;45499;-76
2022/09/18 00:43:26;;;;;;;;;1.00;1.00;;;;;;;;5096884;27;45293;-75
2022/09/18 00:45:56;;;;;;;;;2.00;1.00;;;;;;;;5088854;27;45527;-76
2022/09/18 00:48:23;;;;;;;;;1.33;1.00;;;;;;;;5117601;27;45298;-77
2022/09/18 00:50:48;;;;;;;;;0.00;0.00;;;;;;;;5098209;27;45403;-77
2022/09/18 00:53:14;;;;;;;;;3.00;0.00;;;;;;;;5107738;27;47438;-77
2022/09/18 00:55:41;;;;;;;;;0.33;0.33;;;;;;;;5114355;27;45293;-74
2022/09/18 00:58:06;;;;;;;;;0.00;0.00;;;;;;;;5106098;27;45308;-77
2022/09/18 01:00:32;;;;;;;;;0.00;0.00;;;;;;;;5116253;27;45357;-77
2022/09/18 01:02:58;;;;;;;;;0.33;0.33;;;;;;;;5103754;27;47042;-75
2022/09/18 01:05:33;;;;;;;;;1.00;1.00;;;;;;;;5116824;27;45377;-81
2022/09/18 01:08:13;;;;;;;;;0.33;0.33;;;;;;;;5103123;27;45315;-77
2022/09/18 01:10:38;;;;;;;;;1.00;1.00;;;;;;;;5116969;27;45511;-77
2022/09/18 01:13:17;;;;;;;;;1.00;1.00;;;;;;;;5117162;27;47193;-76
2022/09/18 01:15:45;;;;;;;;;0.00;0.00;;;;;;;;5116564;27;45338;-76
2022/09/18 01:18:29;;;;;;;;;0.00;0.00;;;;;;;;5096156;27;45367;-76
2022/09/18 01:21:08;;;;;;;;;1.00;1.00;;;;;;;;5104684;27;45588;-77
2022/09/18 01:23:46;;;;;;;;;0.00;0.00;;;;;;;;5116495;27;45292;-77
2022/09/18 01:26:30;;;;;;;;;1.00;0.00;;;;;;;;5098051;27;45489;-77
2022/09/18 01:28:58;;;;;;;;;0.00;0.00;;;;;;;;5117334;27;45428;-76
2022/09/18 01:31:28;;;;;;;;;1.00;0.00;;;;;;;;5116948;27;45560;-77
2022/09/18 01:33:58;;;;;;;;;0.00;0.00;;;;;;;;5102130;27;45339;-77
2022/09/18 01:36:27;;;;;;;;;1.00;1.00;;;;;;;;5108425;27;45288;-76
2022/09/18 01:39:06;;;;;;;;;0.67;0.67;;;;;;;;5100593;27;45319;-76
2022/09/18 01:41:33;;;;;;;;;1.00;1.00;;;;;;;;5116805;27;45354;-76
2022/09/18 01:44:10;;;;;;;;;3.33;1.67;;;;;;;;5111376;27;46179;-76
2022/09/18 01:46:38;;;;;;;;;2.33;1.33;;;;;;;;5108676;27;45374;-75
2022/09/18 01:49:06;;;;;;;;;1.00;1.00;;;;;;;;5116549;27;45362;-76
2022/09/18 01:51:37;;;;;;;;;1.00;1.00;;;;;;;;5105481;27;45343;-76
2022/09/18 01:54:06;;;;;;;;;0.67;0.67;;;;;;;;5094733;27;46449;-75
2022/09/18 01:56:36;;;;;;;;;0.00;0.00;;;;;;;;5116388;27;45484;-77
2022/09/18 01:59:05;;;;;;;;;1.00;1.00;;;;;;;;5102102;27;45482;-77
2022/09/18 02:01:32;;;;;;;;;1.00;1.00;;;;;;;;5116160;27;45411;-76
2022/09/18 02:04:00;;;;;;;;;1.00;1.00;;;;;;;;5115960;27;46305;-76
2022/09/18 02:06:29;;;;;;;;;2.00;1.00;;;;;;;;5116425;27;45355;-76
2022/09/18 02:08:55;;;;;;;;;1.00;1.00;;;;;;;;5116384;27;45347;-77
2022/09/18 02:11:21;;;;;;;;;0.67;0.67;;;;;;;;5101795;27;45402;-76
2022/09/18 02:13:46;;;;;;;;;1.00;1.00;;;;;;;;5116306;27;45381;-76
2022/09/18 02:16:19;;;;;;;;;0.50;0.50;;;;;;;;5102096;27;45422;-77
2022/09/18 02:18:47;;;;;;;;;1.00;1.00;;;;;;;;5116273;27;45339;-76
2022/09/18 02:21:16;;;;;;;;;4.00;1.00;;;;;;;;5114238;27;45455;-75
2022/09/18 02:23:41;;;;;;;;;2.00;2.00;;;;;;;;5115802;27;46009;-76
2022/09/18 02:26:08;;;;;;;;;0.00;0.00;;;;;;;;5111335;27;45526;-76
2022/09/18 02:28:35;;;;;;;;;1.00;1.00;;;;;;;;5119927;27;45376;-77
2022/09/18 02:31:00;;;;;;;;;1.00;1.00;;;;;;;;5119729;27;45417;-76
2022/09/18 02:33:26;;;;;;;;;0.00;0.00;;;;;;;;5104924;27;46929;-76
2022/09/18 02:36:03;;;;;;;;;0.67;0.67;;;;;;;;5115679;27;45597;-76
2022/09/18 02:38:35;;;;;;;;;1.00;1.00;;;;;;;;5114446;27;45346;-76
2022/09/18 02:41:03;;;;;;;;;0.67;0.67;;;;;;;;5119656;27;45727;-76
2022/09/18 02:43:34;;;;;;;;;2.00;1.00;;;;;;;;5119332;27;46041;-76
2022/09/18 02:46:07;;;;;;;;;0.33;0.33;;;;;;;;5119630;27;45398;-76
2022/09/18 02:48:35;;;;;;;;;1.00;1.00;;;;;;;;5104778;27;45482;-76
2022/09/18 02:51:12;;;;;;;;;0.00;0.00;;;;;;;;5119825;27;45411;-76
2022/09/18 02:53:57;;;;;;;;;0.67;0.67;;;;;;;;5105690;27;46426;-76
2022/09/18 02:56:25;;;;;;;;;2.00;0.00;;;;;;;;5088345;27;45523;-77
2022/09/18 02:58:56;;;;;;;;;1.33;1.33;;;;;;;;5119338;27;45435;-76
2022/09/18 03:01:23;;;;;;;;;1.67;0.67;;;;;;;;5119198;27;45421;-77
2022/09/18 03:03:50;;;;;;;;;0.67;0.67;;;;;;;;5118804;27;47242;-76
2022/09/18 03:06:15;;;;;;;;;0.33;0.33;;;;;;;;5118871;27;45390;-76
2022/09/18 03:08:41;;;;;;;;;3.33;1.00;;;;;;;;5119273;27;45451;-77
2022/09/18 03:11:06;;;;;;;;;0.00;0.00;;;;;;;;5115195;27;45203;-76
2022/09/18 03:13:31;;;;;;;;;2.00;2.00;;;;;;;;5108590;27;46109;-76
2022/09/18 03:15:57;;;;;;;;;1.00;1.00;;;;;;;;5103878;27;45410;-75
2022/09/18 03:18:22;;;;;;;;;1.00;1.00;;;;;;;;5119250;27;45336;-77
2022/09/18 03:20:47;;;;;;;;;0.33;0.33;;;;;;;;5119026;27;45493;-76
2022/09/18 03:23:12;;;;;;;;;3.00;1.00;;;;;;;;5113097;27;45416;-76
2022/09/18 03:25:38;;;;;;;;;0.00;0.00;;;;;;;;5110264;27;45358;-76
2022/09/18 03:28:04;;;;;;;;;1.00;1.00;;;;;;;;5104104;27;45488;-76
2022/09/18 03:30:29;;;;;;;;;2.33;2.00;;;;;;;;5118279;27;45504;-76
2022/09/18 03:32:54;;;;;;;;;1.00;1.00;;;;;;;;5102055;27;45477;-76
2022/09/18 03:35:19;;;;;;;;;5.00;2.00;;;;;;;;5115576;27;45285;-76
2022/09/18 03:37:44;;;;;;;;;2.00;2.00;;;;;;;;5106889;27;45304;-75
2022/09/18 03:40:10;;;;;;;;;1.00;1.00;;;;;;;;5118762;27;45291;-77
2022/09/18 03:42:36;;;;;;;;;1.00;1.00;;;;;;;;5118510;27;45275;-76
2022/09/18 03:45:01;;;;;;;;;0.33;0.33;;;;;;;;5105004;27;45310;-75
2022/09/18 03:47:26;;;;;;;;;1.00;1.00;;;;;;;;5117709;27;45347;-76
2022/09/18 03:49:52;;;;;;;;;2.00;2.00;;;;;;;;5118122;27;45488;-77
2022/09/18 03:52:17;;;;;;;;;1.00;1.00;;;;;;;;5085519;27;46398;-76
2022/09/18 03:54:43;;;;;;;;;1.00;1.00;;;;;;;;5098155;27;45193;-76
2022/09/18 03:57:08;;;;;;;;;3.67;0.67;;;;;;;;5112088;27;45453;-75
2022/09/18 03:59:33;;;;;;;;;1.00;1.00;;;;;;;;5104890;27;45367;-76
2022/09/18 04:01:58;;;;;;;;;0.67;0.67;;;;;;;;5118260;27;46303;-76
2022/09/18 04:04:23;;;;;;;;;1.00;1.00;;;;;;;;5117406;27;45419;-76
2022/09/18 04:06:49;;;;;;;;;0.67;0.00;;;;;;;;5118519;27;45185;-76
2022/09/18 04:09:15;;;;;;;;;2.33;1.33;;;;;;;;5118160;27;45292;-76
2022/09/18 04:11:40;;;;;;;;;2.00;1.00;;;;;;;;5118297;27;47049;-76
2022/09/18 04:14:05;;;;;;;;;0.00;0.00;;;;;;;;5118131;27;45383;-76
2022/09/18 04:16:31;;;;;;;;;0.00;0.00;;;;;;;;5118269;27;45293;-76
2022/09/18 04:18:56;;;;;;;;;1.00;1.00;;;;;;;;5117873;27;45453;-76
2022/09/18 04:21:21;;;;;;;;;0.00;0.00;;;;;;;;5117756;27;45472;-76
2022/09/18 04:23:46;;;;;;;;;2.33;1.33;;;;;;;;5117676;27;45516;-76
2022/09/18 04:26:12;;;;;;;;;1.00;1.00;;;;;;;;5117930;27;45363;-76
2022/09/18 04:28:37;;;;;;;;;2.00;1.00;;;;;;;;5116200;27;45702;-77
2022/09/18 04:31:02;;;;;;;;;1.33;1.33;;;;;;;;5117954;27;45429;-77
2022/09/18 04:33:27;;;;;;;;;0.33;0.33;;;;;;;;5103125;27;45430;-76
2022/09/18 04:35:53;;;;;;;;;1.00;1.00;;;;;;;;5113627;27;45471;-76
2022/09/18 04:38:26;;;;;;;;;1.00;1.00;;;;;;;;5111425;27;45353;-76
2022/09/18 04:40:57;;;;;;;;;0.00;0.00;;;;;;;;5117707;27;47159;-76
2022/09/18 04:43:23;;;;;;;;;4.00;1.33;;;;;;;;5117429;27;45279;-76
2022/09/18 04:45:48;;;;;;;;;4.00;1.00;;;;;;;;5117187;27;45269;-76
2022/09/18 04:48:14;;;;;;;;;2.00;2.00;;;;;;;;5117339;27;45309;-76
2022/09/18 04:50:39;;;;;;;;;1.00;1.00;;;;;;;;5117204;27;45505;-76
2022/09/18 04:53:04;;;;;;;;;0.00;0.00;;;;;;;;5114395;27;45419;-76
2022/09/18 04:55:29;;;;;;;;;3.00;1.00;;;;;;;;5112933;27;45354;-76
2022/09/18 04:57:55;;;;;;;;;0.33;0.33;;;;;;;;5117363;27;45396;-75
2022/09/18 05:00:20;;;;;;;;;1.00;1.00;;;;;;;;5117076;27;46351;-76
2022/09/18 05:02:45;;;;;;;;;1.00;1.00;;;;;;;;5116955;27;45329;-76
2022/09/18 05:05:10;;;;;;;;;1.00;1.00;;;;;;;;5117178;27;45405;-76
2022/09/18 05:07:35;;;;;;;;;0.33;0.33;;;;;;;;5117268;27;45567;-76
2022/09/18 05:10:01;;;;;;;;;0.00;0.00;;;;;;;;5108132;27;45579;-76
2022/09/18 05:12:26;;;;;;;;;2.00;1.00;;;;;;;;5111814;27;45324;-76
2022/09/18 05:14:51;;;;;;;;;0.33;0.33;;;;;;;;5117457;27;45329;-76
2022/09/18 05:17:16;;;;;;;;;1.00;1.00;;;;;;;;5116674;27;45389;-76
2022/09/18 05:19:42;;;;;;;;;1.00;0.00;;;;;;;;5116842;27;46351;-75
2022/09/18 05:22:07;;;;;;;;;0.00;0.00;;;;;;;;5117372;27;45264;-76
2022/09/18 05:24:32;;;;;;;;;0.67;0.67;;;;;;;;5117046;27;45413;-76
2022/09/18 05:26:57;;;;;;;;;1.00;1.00;;;;;;;;5117217;27;45802;-77
2022/09/18 05:29:22;;;;;;;;;0.00;0.00;;;;;;;;5109370;27;46107;-76
2022/09/18 05:31:48;;;;;;;;;0.67;0.67;;;;;;;;5114127;27;45404;-76
2022/09/18 05:34:13;;;;;;;;;2.00;1.00;;;;;;;;5105039;27;45459;-75
2022/09/18 05:36:38;;;;;;;;;1.00;1.00;;;;;;;;5106420;27;45442;-75
2022/09/18 05:39:04;;;;;;;;;2.00;2.00;;;;;;;;5116835;27;46045;-76
2022/09/18 05:41:29;;;;;;;;;1.00;1.00;;;;;;;;5104570;27;45348;-76
2022/09/18 05:43:54;;;;;;;;;1.00;1.00;;;;;;;;5114394;27;45548;-76
2022/09/18 05:46:19;;;;;;;;;1.00;1.00;;;;;;;;5116875;27;45451;-76
2022/09/18 05:48:47;;;;;;;;;1.00;1.00;;;;;;;;5116669;27;46222;-75
2022/09/18 05:51:12;;;;;;;;;1.00;1.00;;;;;;;;5116737;27;45413;-76
2022/09/18 05:53:37;;;;;;;;;1.00;1.00;;;;;;;;5116830;27;45385;-76
2022/09/18 05:56:02;;;;;;;;;2.33;2.33;;;;;;;;5105156;27;45443;-75
2022/09/18 05:58:27;;;;;;;;;0.00;0.00;;;;;;;;5116594;27;45356;-76
2022/09/18 06:00:55;;;;;;;;;1.00;1.00;;;;;;;;5117627;27;45547;-75
2022/09/18 06:03:20;;;;;;;;;1.33;0.33;;;;;;;;5119732;27;45292;-75
2022/09/18 06:05:52;;;;;;;;;1.00;1.00;;;;;;;;5119689;27;45337;-76
2022/09/18 06:08:18;;;;;;;;;0.00;0.00;;;;;;;;5120253;27;46154;-75
2022/09/18 06:10:43;;;;;;;;;1.00;1.00;;;;;;;;5119421;27;45266;-75
2022/09/18 06:13:10;;;;;;;;;1.00;1.00;;;;;;;;5120211;27;45331;-75
2022/09/18 06:15:36;;;;;;;;;1.00;1.00;;;;;;;;5119713;27;45535;-75
2022/09/18 06:18:01;;;;;;;;;1.00;1.00;;;;;;;;5119588;27;46988;-75
2022/09/18 06:20:27;;;;;;;;;0.33;0.33;;;;;;;;5119717;27;45429;-76
2022/09/18 06:22:52;;;;;;;;;1.00;1.00;;;;;;;;5120232;27;45333;-75
2022/09/18 06:25:20;;;;;;;;;1.33;1.33;;;;;;;;5119805;27;45502;-76
2022/09/18 06:27:45;;;;;;;;;1.67;1.00;;;;;;;;5119428;27;46169;-76
2022/09/18 06:30:11;;;;;;;;;1.00;1.00;;;;;;;;5115855;27;45434;-75
2022/09/18 06:32:36;;;;;;;;;1.00;1.00;;;;;;;;5110720;27;45399;-75
2022/09/18 06:35:01;;;;;;;;;0.67;0.67;;;;;;;;5114132;27;45298;-76
2022/09/18 06:37:26;;;;;;;;;1.00;1.00;;;;;;;;5108838;27;47157;-76
2022/09/18 06:39:52;;;;;;;;;1.00;1.00;;;;;;;;5119751;27;45557;-76
2022/09/18 06:42:17;;;;;;;;;2.67;1.00;;;;;;;;5105220;27;46745;-76
2022/09/18 06:44:42;;;;;;;;;0.67;0.33;;;;;;;;5119298;27;45405;-75
2022/09/18 06:47:07;;;;;;;;;2.67;1.00;;;;;;;;5119126;27;46127;-75
2022/09/18 06:49:33;;;;;;;;;0.67;0.67;;;;;;;;5119630;27;45435;-75
2022/09/18 06:51:58;;;;;;;;;1.00;1.00;;;;;;;;5119386;27;45240;-76
2022/09/18 06:54:23;;;;;;;;;1.00;1.00;;;;;;;;5112652;27;45216;-75
2022/09/18 06:56:49;;;;;;;;;1.00;1.00;;;;;;;;5111495;27;45880;-75
2022/09/18 06:59:14;;;;;;;;;1.00;1.00;;;;;;;;5118678;27;45321;-75
2022/09/18 07:01:39;;;;;;;;;0.00;0.00;;;;;;;;5119520;27;45290;-75
2022/09/18 07:04:04;;;;;;;;;0.00;0.00;;;;;;;;5119127;27;45221;-75
2022/09/18 07:06:29;;;;;;;;;2.00;2.00;;;;;;;;5118850;27;46066;-76
2022/09/18 07:08:55;;;;;;;;;1.33;1.33;;;;;;;;5119348;27;45431;-76
2022/09/18 07:11:20;;;;;;;;;1.00;1.00;;;;;;;;5085759;27;45371;-76
2022/09/18 07:13:46;;;;;;;;;1.00;1.00;;;;;;;;5118032;27;45406;-75
2022/09/18 07:16:12;;;;;;;;;0.67;0.67;;;;;;;;5103984;27;46047;-75
2022/09/18 07:18:37;;;;;;;;;1.00;1.00;;;;;;;;5118963;27;45449;-75
2022/09/18 07:21:02;;;;;;;;;1.00;1.00;;;;;;;;5118930;27;45315;-77
2022/09/18 07:23:31;;;;;;;;;1.33;1.33;;;;;;;;5119135;27;45394;-76
2022/09/18 07:26:00;;;;;;;;;1.00;1.00;;;;;;;;5118720;27;46998;-76
2022/09/18 07:28:25;;;;;;;;;1.00;1.00;;;;;;;;5090463;27;45457;-76
2022/09/18 07:30:50;;;;;;;;;1.00;1.00;;;;;;;;5112621;27;45429;-75
2022/09/18 07:33:15;;;;;;;;;0.00;0.00;;;;;;;;5102392;27;45373;-76
2022/09/18 07:35:40;;;;;;;;;1.00;1.00;;;;;;;;5116347;27;46358;-74
2022/09/18 07:38:06;;;;;;;;;1.00;1.00;;;;;;;;5110444;27;45380;-76
2022/09/18 07:40:32;;;;;;;;;2.00;1.00;;;;;;;;5118678;27;45394;-76
2022/09/18 07:43:01;;;;;;;;;1.33;1.33;;;;;;;;5118539;27;45329;-76
2022/09/18 07:45:26;;;;;;;;;2.00;1.00;;;;;;;;5103896;27;46299;-76
2022/09/18 07:47:52;;;;;;;;;0.00;0.00;;;;;;;;5118395;27;45283;-76
2022/09/18 07:50:17;;;;;;;;;1.33;1.33;;;;;;;;5118552;27;45309;-75
2022/09/18 07:52:52;;;;;;;;;1.00;1.00;;;;;;;;5118693;27;45405;-76
2022/09/18 07:55:19;;;;;;;;;1.00;1.00;;;;;;;;5104087;27;45250;-76
2022/09/18 07:57:45;;;;;;;;;1.00;1.00;;;;;;;;5117582;27;45420;-76
2022/09/18 08:00:10;;;;;;;;;1.00;0.00;;;;;;;;5118512;27;45387;-76
2022/09/18 08:02:35;;;;;;;;;2.00;2.00;;;;;;;;5118157;27;45479;-76
2022/09/18 08:05:01;;;;;;;;;1.00;1.00;;;;;;;;5118023;27;45384;-76
2022/09/18 08:07:26;;;;;;;;;1.00;1.00;;;;;;;;5118165;27;45483;-76
2022/09/18 08:09:51;;;;;;;;;0.67;0.67;;;;;;;;5118305;27;45318;-76
2022/09/18 08:12:16;;;;;;;;;1.00;1.00;;;;;;;;5117940;27;45632;-75
2022/09/18 08:14:41;;;;;;;;;1.00;1.00;;;;;;;;5117900;27;45459;-75
2022/09/18 08:17:07;;;;;;;;;1.00;1.00;;;;;;;;5118130;27;45379;-75
2022/09/18 08:19:32;;;;;;;;;0.67;0.67;;;;;;;;5118072;27;45263;-76
2022/09/18 08:21:57;;;;;;;;;1.00;1.00;;;;;;;;5118090;27;45267;-76
2022/09/18 08:24:22;;;;;;;;;0.00;0.00;;;;;;;;5102867;27;47296;-76
2022/09/18 08:26:48;;;;;;;;;1.00;1.00;;;;;;;;5117525;27;45326;-76
2022/09/18 08:29:17;;;;;;;;;0.33;0.33;;;;;;;;5118057;27;45597;-76
2022/09/18 08:31:43;;;;;;;;;0.67;0.67;;;;;;;;5112546;27;45584;-76
2022/09/18 08:34:08;;;;;;;;;2.33;2.00;;;;;;;;5086296;27;46929;-77
2022/09/18 08:36:33;;;;;;;;;0.67;0.67;;;;;;;;5103881;27;45373;-75
2022/09/18 08:38:58;;;;;;;;;0.00;0.00;;;;;;;;5111648;27;45361;-75
2022/09/18 08:41:27;;;;;;;;;1.00;1.00;;;;;;;;5108542;27;45402;-75
2022/09/18 08:43:56;;;;;;;;;1.00;1.00;;;;;;;;5117162;27;46321;-76
2022/09/18 08:46:25;;;;;;;;;2.00;1.00;;;;;;;;5117905;27;45286;-76
2022/09/18 08:48:53;;;;;;;;;1.00;1.00;;;;;;;;5117454;27;45511;-76
2022/09/18 08:51:21;;;;;;;;;0.00;0.00;;;;;;;;5117480;27;45495;-76
2022/09/18 08:53:49;;;;;;;;;0.33;0.33;;;;;;;;5102179;27;46147;-76
2022/09/18 08:56:15;;;;;;;;;0.00;0.00;;;;;;;;5109606;27;45441;-75
2022/09/18 08:59:07;;;;;;;;;0.33;0.33;;;;;;;;5110675;27;45451;-76
2022/09/18 09:01:44;;;;;;;;;0.67;0.67;;;;;;;;5091800;27;45274;-75
2022/09/18 09:04:13;;;;;;;;;2.00;0.00;;;;;;;;5116105;27;46205;-76
2022/09/18 09:06:41;;;;;;;;;1.00;1.00;;;;;;;;5117150;27;45412;-75
2022/09/18 09:09:23;;;;;;;;;2.00;0.33;;;;;;;;5116910;27;45301;-76
2022/09/18 09:11:51;;;;;;;;;0.00;0.00;;;;;;;;5117348;27;45358;-75
2022/09/18 09:14:28;;;;;;;;;0.33;0.33;;;;;;;;5116870;27;46218;-76
2022/09/18 09:17:17;;;;;;;;;1.67;1.00;;;;;;;;5117296;27;45401;-75
2022/09/18 09:19:45;;;;;;;;;1.00;1.00;;;;;;;;5108321;27;45299;-75
2022/09/18 09:22:12;;;;;;;;;2.00;2.00;;;;;;;;5117293;27;45565;-76
2022/09/18 09:24:46;;;;;;;;;1.00;1.00;;;;;;;;5116143;27;47149;-79
2022/09/18 09:27:22;;;;;;;;;0.67;0.67;;;;;;;;5116823;27;45458;-76
2022/09/18 09:29:49;;;;;;;;;0.00;0.00;;;;;;;;5116983;27;45336;-78
2022/09/18 09:32:15;;;;;;;;;1.00;1.00;;;;;;;;5110858;27;45716;-78
2022/09/18 09:34:43;;;;;;;;;1.00;1.00;;;;;;;;5107923;27;46015;-79
2022/09/18 09:37:15;;;;;;;;;1.00;1.00;;;;;;;;5101490;27;45386;-74
2022/09/18 09:39:44;;;;;;;;;1.33;0.00;;;;;;;;5107523;27;45331;-74
2022/09/18 09:42:20;;;;;;;;;1.00;1.00;;;;;;;;5116872;27;45390;-75
2022/09/18 09:44:49;;;;;;;;;1.00;1.00;;;;;;;;5116578;27;46003;-79
2022/09/18 09:47:32;;;;;;;;;2.00;1.00;;;;;;;;5116627;27;45323;-80
2022/09/18 09:50:16;;;;;;;;;1.00;1.00;;;;;;;;5116816;27;45397;-76
2022/09/18 09:52:43;;;;;;;;;1.00;1.00;;;;;;;;5088550;27;45442;-75
2022/09/18 09:55:08;;;;;;;;;2.00;2.00;;;;;;;;5103781;27;45546;-74
2022/09/18 09:58:00;;;;;;;;;3.00;2.00;;;;;;;;5111446;27;45437;-75
2022/09/18 10:00:27;;;;;;;;;2.00;2.00;;;;;;;;5113360;27;45686;-75
2022/09/18 10:03:18;;;;;;;;;0.67;0.67;;;;;;;;5110383;27;45320;-78
2022/09/18 10:05:55;;;;;;;;;1.00;1.00;;;;;;;;5110853;27;45451;-80
2022/09/18 10:08:26;;;;;;;;;1.00;1.00;;;;;;;;5115529;27;45354;-81
2022/09/18 10:10:54;;;;;;;;;1.00;1.00;;;;;;;;5097815;27;45399;-75
2022/09/18 10:13:26;;;;;;;;;3.00;2.00;;;;;;;;5116424;27;45371;-74
2022/09/18 10:15:56;;;;;;;;;1.00;1.00;;;;;;;;5115917;27;47226;-75
2022/09/18 10:18:28;;;;;;;;;3.00;3.00;;;;;;;;5116262;27;45305;-74
2022/09/18 10:20:56;;;;;;;;;1.33;1.33;;;;;;;;5115830;27;45377;-75
2022/09/18 10:23:34;;;;;;;;;2.00;2.00;;;;;;;;5116154;27;45450;-74
2022/09/18 10:25:59;;;;;;;;;2.00;2.00;;;;;;;;5115734;27;47391;-74
2022/09/18 10:28:28;;;;;;;;;3.00;3.00;;;;;;;;5115872;27;45285;-75
2022/09/18 10:31:04;;;;;;;;;1.33;1.33;;;;;;;;5116332;27;45422;-74
2022/09/18 10:33:32;;;;;;;;;2.67;2.67;;;;;;;;5101294;27;45334;-74
2022/09/18 10:36:23;;;;;;;;;1.67;1.67;;;;;;;;5110549;27;45384;-75
2022/09/18 10:38:49;;;;;;;;;2.00;2.00;;;;;;;;5110671;27;46426;-79
2022/09/18 10:41:17;;;;;;;;;1.00;1.00;;;;;;;;5116196;27;45303;-79
2022/09/18 10:43:53;;;;;;;;;0.00;0.00;;;;;;;;5115886;27;45398;-73
2022/09/18 10:46:23;;;;;;;;;0.67;0.33;;;;;;;;5106520;27;46297;-74
2022/09/18 10:48:48;;;;;;;;;1.00;1.00;;;;;;;;5115412;27;45401;-76
2022/09/18 10:51:16;;;;;;;;;3.00;2.00;;;;;;;;5110756;27;45503;-76
2022/09/18 10:53:41;;;;;;;;;0.00;0.00;;;;;;;;5113186;27;45331;-75
2022/09/18 10:56:19;;;;;;;;;3.00;3.00;;;;;;;;5119195;27;45363;-78
2022/09/18 10:58:45;;;;;;;;;21.75;18.25;;;;;;;;5113962;27;45258;-75
2022/09/18 11:01:11;;;;;;;;;18.00;15.00;;;;;;;;5090284;27;45345;-74
2022/09/18 11:03:38;;;;;;;;;19.50;15.50;;;;;;;;5119158;27;45340;-74
2022/09/18 11:06:06;;;;;;;;;30.00;24.50;;;;;;;;5118218;27;45331;-73
2022/09/18 11:08:33;;;;;;;;;151.25;133.75;;;;;;;;5118720;27;46028;-73
2022/09/18 11:11:01;;;;;;;;;73.50;57.75;;;;;;;;5118907;27;45470;-73
2022/09/18 11:13:27;;;;;;;;;65.50;47.50;;;;;;;;5119114;27;45461;-74
2022/09/18 11:15:55;;;;;;;;;57.25;45.75;;;;;;;;5118454;27;46111;-74
2022/09/18 11:18:22;;;;;;;;;22.00;19.25;;;;;;;;5111358;27;45338;-73
2022/09/18 11:20:48;;;;;;;;;31.75;28.75;;;;;;;;5111865;27;45271;-74
2022/09/18 11:23:26;;;;;;;;;21.50;18.50;;;;;;;;5118473;27;45487;-74
2022/09/18 11:26:07;;;;;;;;;14.00;12.00;;;;;;;;5118533;27;47373;-74
2022/09/18 11:28:33;;;;;;;;;11.50;10.00;;;;;;;;5118450;27;45527;-74
2022/09/18 11:30:58;;;;;;;;;10.00;9.00;;;;;;;;5118886;27;45479;-74
2022/09/18 11:33:23;;;;;;;;;13.00;13.00;;;;;;;;5103618;27;45405;-74
2022/09/18 11:35:53;;;;;;;;;8.50;8.00;;;;;;;;5115367;27;45560;-75
2022/09/18 11:38:18;;;;;;;;;6.00;6.00;;;;;;;;5112166;27;45434;-75
2022/09/18 11:40:51;;;;;;;;;6.25;6.25;;;;;;;;5118597;27;45537;-75
2022/09/18 11:43:27;;;;;;;;;4.33;4.00;;;;;;;;5118552;27;45303;-74
2022/09/18 11:46:02;;;;;;;;;10.33;6.00;;;;;;;;5118335;27;46173;-75
2022/09/18 11:48:34;;;;;;;;;4.00;4.00;;;;;;;;5117815;27;45387;-75
2022/09/18 11:51:02;;;;;;;;;5.33;4.00;;;;;;;;5118734;27;45413;-75
2022/09/18 11:53:31;;;;;;;;;3.67;3.00;;;;;;;;5118413;27;45650;-75
2022/09/18 11:56:06;;;;;;;;;4.00;4.00;;;;;;;;5108321;27;46354;-74
2022/09/18 11:58:38;;;;;;;;;5.00;3.67;;;;;;;;5101156;27;45772;-75
2022/09/18 12:01:26;;;;;;;;;3.00;1.33;;;;;;;;5111013;27;45419;-74
2022/09/18 12:03:59;;;;;;;;;2.33;2.33;;;;;;;;5117776;27;45277;-76
2022/09/18 12:06:34;;;;;;;;;1.67;1.00;;;;;;;;5118196;27;45396;-74
2022/09/18 12:09:19;;;;;;;;;3.00;3.00;;;;;;;;5117928;27;45319;-74
2022/09/18 12:11:48;;;;;;;;;0.00;0.00;;;;;;;;5117514;27;45441;-74
2022/09/18 12:14:13;;;;;;;;;2.33;1.00;;;;;;;;5118135;27;45249;-73
2022/09/18 12:16:49;;;;;;;;;1.00;1.00;;;;;;;;5117623;27;46998;-73
2022/09/18 12:19:18;;;;;;;;;1.00;1.00;;;;;;;;5117739;27;45700;-73
2022/09/18 12:21:48;;;;;;;;;2.00;1.67;;;;;;;;5117998;27;45316;-73
2022/09/18 12:24:16;;;;;;;;;1.00;1.00;;;;;;;;5117868;27;45444;-74
2022/09/18 12:26:44;;;;;;;;;0.67;0.67;;;;;;;;5117398;27;46474;-74
2022/09/18 12:29:09;;;;;;;;;0.00;0.00;;;;;;;;5117594;27;45801;-74
2022/09/18 12:31:35;;;;;;;;;1.00;1.00;;;;;;;;5117221;27;45415;-74
2022/09/18 12:34:02;;;;;;;;;2.00;0.67;;;;;;;;5097180;27;45522;-75
2022/09/18 12:36:46;;;;;;;;;0.00;0.00;;;;;;;;5100781;27;46470;-75
2022/09/18 12:39:27;;;;;;;;;2.67;0.00;;;;;;;;5090546;27;45508;-73
2022/09/18 12:41:52;;;;;;;;;0.00;0.00;;;;;;;;5117498;27;45376;-73
2022/09/18 12:44:17;;;;;;;;;0.00;0.00;;;;;;;;5117461;27;45362;-71
2022/09/18 12:46:55;;;;;;;;;0.00;0.00;;;;;;;;5117247;27;46230;-72
2022/09/18 12:49:39;;;;;;;;;0.00;0.00;;;;;;;;5103502;27;45320;-72
2022/09/18 12:52:04;;;;;;;;;0.00;0.00;;;;;;;;5117263;27;45400;-72
2022/09/18 12:54:33;;;;;;;;;0.00;0.00;;;;;;;;5117500;27;45343;-72
2022/09/18 12:57:22;;;;;;;;;0.00;0.00;;;;;;;;5117378;27;45248;-72
2022/09/18 12:59:57;;;;;;;;;2.67;0.67;;;;;;;;5090910;27;45446;-73
2022/09/18 13:02:27;;;;;;;;;0.00;0.00;;;;;;;;5096149;27;45462;-72
2022/09/18 13:05:05;;;;;;;;;0.00;0.00;;;;;;;;5096188;27;45274;-72
2022/09/18 13:07:36;;;;;;;;;1.00;1.00;;;;;;;;5096198;27;47002;-72
2022/09/18 13:10:10;;;;;;;;;0.67;0.67;;;;;;;;5094945;27;45388;-71
2022/09/18 13:12:47;;;;;;;;;0.00;0.00;;;;;;;;5096161;27;45339;-71
2022/09/18 13:15:12;;;;;;;;;0.00;0.00;;;;;;;;5095390;27;45501;-71
2022/09/18 13:17:40;;;;;;;;;1.00;0.00;;;;;;;;5095807;27;47190;-71
2022/09/18 13:20:22;;;;;;;;;1.00;0.00;;;;;;;;5095934;27;45365;-71
2022/09/18 13:22:48;;;;;;;;;0.00;0.00;;;;;;;;5096101;27;45576;-71
2022/09/18 13:25:36;;;;;;;;;1.00;0.00;;;;;;;;5095670;27;45367;-71
2022/09/18 13:28:03;;;;;;;;;0.00;0.00;;;;;;;;5087049;27;47156;-70
2022/09/18 13:30:30;;;;;;;;;0.00;0.00;;;;;;;;5095113;27;45398;-71
2022/09/18 13:32:56;;;;;;;;;0.67;0.67;;;;;;;;5077694;27;45277;-70
2022/09/18 13:35:29;;;;;;;;;1.00;1.00;;;;;;;;5100885;27;45417;-70
2022/09/18 13:38:21;;;;;;;;;0.00;0.00;;;;;;;;5106426;27;47140;-70
2022/09/18 13:40:48;;;;;;;;;0.00;0.00;;;;;;;;5112998;27;45295;-71
2022/09/18 13:43:16;;;;;;;;;1.67;1.00;;;;;;;;5116337;27;45436;-73
2022/09/18 13:45:41;;;;;;;;;0.00;0.00;;;;;;;;5097652;27;45512;-72
2022/09/18 13:48:17;;;;;;;;;0.67;0.67;;;;;;;;5095737;27;47044;-72
2022/09/18 13:50:51;;;;;;;;;0.00;0.00;;;;;;;;5095844;27;45300;-72
2022/09/18 13:53:30;;;;;;;;;0.00;0.00;;;;;;;;5095722;27;45312;-72
2022/09/18 13:55:56;;;;;;;;;0.00;0.00;;;;;;;;5095661;27;45311;-72
2022/09/18 13:58:30;;;;;;;;;1.00;0.00;;;;;;;;5095265;27;46344;-72
2022/09/18 14:00:56;;;;;;;;;0.00;0.00;;;;;;;;5095692;27;45421;-72
2022/09/18 14:03:21;;;;;;;;;0.00;0.00;;;;;;;;5095559;27;45407;-72
2022/09/18 14:05:46;;;;;;;;;1.00;0.00;;;;;;;;5095301;27;45378;-72
2022/09/18 14:08:12;;;;;;;;;0.67;0.67;;;;;;;;5095448;27;47298;-71
2022/09/18 14:10:55;;;;;;;;;0.00;0.00;;;;;;;;5095539;27;45451;-72
2022/09/18 14:13:28;;;;;;;;;2.00;0.00;;;;;;;;5095200;27;45492;-72
2022/09/18 14:15:56;;;;;;;;;0.00;0.00;;;;;;;;5095723;27;45417;-71
2022/09/18 14:18:27;;;;;;;;;0.00;0.00;;;;;;;;5076817;27;46344;-71
2022/09/18 14:20:57;;;;;;;;;0.00;0.00;;;;;;;;5095530;27;45406;-71
2022/09/18 14:23:35;;;;;;;;;0.00;0.00;;;;;;;;5099027;27;45346;-71
2022/09/18 14:26:01;;;;;;;;;2.00;0.33;;;;;;;;5098722;27;45521;-72
2022/09/18 14:28:28;;;;;;;;;0.00;0.00;;;;;;;;5098250;27;46301;-71
2022/09/18 14:31:12;;;;;;;;;0.00;0.00;;;;;;;;5099012;27;45425;-72
2022/09/18 14:33:38;;;;;;;;;0.00;0.00;;;;;;;;5098960;27;45331;-72
2022/09/18 14:36:04;;;;;;;;;0.33;0.00;;;;;;;;5098699;27;45270;-72
2022/09/18 14:38:32;;;;;;;;;0.00;0.00;;;;;;;;5098472;27;46400;-72
2022/09/18 14:41:18;;;;;;;;;0.00;0.00;;;;;;;;5098523;27;45496;-71
2022/09/18 14:44:02;;;;;;;;;1.00;0.00;;;;;;;;5098406;27;45508;-72
2022/09/18 14:46:30;;;;;;;;;0.00;0.00;;;;;;;;5098390;27;45595;-72
2022/09/18 14:48:55;;;;;;;;;1.00;1.00;;;;;;;;5098273;27;47494;-72
2022/09/18 14:51:22;;;;;;;;;0.00;0.00;;;;;;;;5089451;27;45494;-72